createdAt,value
2019-05-12T00:00:21.153Z,2.37
2019-05-12T00:02:49.589Z,2.60
2019-05-12T00:05:18.673Z,2.40
2019-05-12T00:07:48.679Z,2.60
2019-05-12T00:10:18.938Z,2.60
2019-05-12T00:12:48.504Z,2.45
2019-05-12T00:15:19.174Z,2.90
2019-05-12T00:17:48.571Z,2.60
2019-05-12T00:20:18.419Z,2.70
2019-05-12T00:22:49.135Z,2.50
2019-05-12T00:25:18.550Z,2.45
2019-05-12T00:27:48.620Z,2.65
2019-05-12T00:30:38.850Z,2.50
2019-05-12T00:33:09.417Z,2.55
2019-05-12T00:35:38.299Z,2.87
2019-05-12T00:38:09.123Z,2.75
2019-05-12T00:40:39.106Z,2.98
2019-05-12T00:43:08.647Z,2.62
2019-05-12T00:45:38.783Z,2.67
2019-05-12T00:48:09.254Z,2.52
2019-05-12T00:50:38.283Z,2.47
2019-05-12T00:53:09.144Z,2.90
2019-05-12T00:55:38.028Z,2.35
2019-05-12T00:58:08.331Z,2.45
2019-05-12T01:00:40.618Z,2.60
2019-05-12T01:03:08.756Z,2.40
2019-05-12T01:05:38.293Z,2.67
2019-05-12T01:08:09.110Z,2.40
2019-05-12T01:10:38.905Z,2.67
2019-05-12T01:13:08.774Z,2.77
2019-05-12T01:15:38.172Z,2.95
2019-05-12T01:18:09.478Z,2.98
2019-05-12T01:20:38.926Z,2.80
2019-05-12T01:23:08.466Z,2.70
2019-05-12T01:25:39.442Z,2.87
2019-05-12T01:28:08.503Z,2.67
2019-05-12T01:30:38.984Z,2.92
2019-05-12T01:33:08.548Z,2.87
2019-05-12T01:35:38.819Z,3.00
2019-05-12T01:38:08.136Z,2.80
2019-05-12T01:40:39.518Z,3.05
2019-05-12T01:43:08.604Z,2.85
2019-05-12T01:45:38.081Z,2.80
2019-05-12T01:48:08.641Z,2.83
2019-05-12T01:50:38.615Z,2.98
2019-05-12T01:53:08.642Z,2.75
2019-05-12T01:55:38.900Z,3.30
2019-05-12T01:58:08.381Z,2.98
2019-05-12T02:00:38.894Z,3.58
2019-05-12T02:03:09.191Z,3.15
2019-05-12T02:05:39.743Z,3.42
2019-05-12T02:08:10.123Z,2.55
2019-05-12T02:10:39.017Z,3.60
2019-05-12T02:13:08.026Z,3.27
2019-05-12T02:15:38.325Z,3.20
2019-05-12T02:18:09.100Z,3.27
2019-05-12T02:20:38.320Z,2.92
2019-05-12T02:23:08.931Z,3.47
2019-05-12T02:25:38.183Z,3.15
2019-05-12T02:28:09.234Z,3.40
2019-05-12T02:30:41.674Z,3.50
2019-05-12T02:33:07.851Z,3.77
2019-05-12T02:35:36.336Z,3.20
2019-05-12T02:38:05.279Z,2.90
2019-05-12T02:40:35.006Z,3.15
2019-05-12T02:43:05.314Z,3.00
2019-05-12T02:45:35.569Z,3.00
2019-05-12T02:48:05.237Z,2.87
2019-05-12T02:50:54.507Z,3.00
2019-05-12T02:53:24.871Z,2.80
2019-05-12T02:55:55.586Z,3.05
2019-05-12T02:58:26.926Z,2.60
2019-05-12T03:00:57.583Z,2.92
2019-05-12T03:03:29.431Z,2.95
2019-05-12T03:06:00.375Z,2.80
2019-05-12T03:08:34.559Z,3.08
2019-05-12T03:11:08.150Z,3.12
2019-05-12T03:13:36.614Z,3.22
2019-05-12T03:16:05.261Z,2.98
2019-05-12T03:18:34.811Z,3.02
2019-05-12T03:21:05.573Z,3.17
2019-05-12T03:23:35.234Z,3.22
2019-05-12T03:26:05.196Z,2.65
2019-05-12T03:28:35.657Z,2.87
2019-05-12T03:31:07.851Z,2.58
2019-05-12T03:33:42.050Z,2.90
2019-05-12T03:36:09.118Z,2.60
2019-05-12T03:38:36.061Z,2.55
2019-05-12T03:41:05.518Z,2.75
2019-05-12T03:43:35.231Z,2.87
2019-05-12T03:46:05.246Z,2.70
2019-05-12T03:48:34.914Z,2.60
2019-05-12T03:51:05.671Z,2.62
2019-05-12T03:53:35.481Z,2.45
2019-05-12T03:56:04.510Z,2.60
2019-05-12T03:58:34.546Z,2.33
2019-05-12T04:01:04.841Z,2.98
2019-05-12T04:03:34.504Z,2.72
2019-05-12T04:06:04.788Z,2.22
2019-05-12T04:08:34.716Z,2.85
2019-05-12T04:11:05.354Z,2.50
2019-05-12T04:13:34.304Z,2.55
2019-05-12T04:16:04.871Z,2.92
2019-05-12T04:18:34.930Z,2.90
2019-05-12T04:21:05.446Z,2.35
2019-05-12T04:23:34.803Z,2.80
2019-05-12T04:26:10.996Z,2.75
2019-05-12T04:28:35.141Z,3.08
2019-05-12T04:31:05.522Z,2.15
2019-05-12T04:33:34.754Z,2.47
2019-05-12T04:36:05.534Z,2.33
2019-05-12T04:38:35.465Z,2.70
2019-05-12T04:41:05.764Z,2.15
2019-05-12T04:43:35.412Z,2.75
2019-05-12T04:46:05.110Z,2.50
2019-05-12T04:48:35.786Z,2.10
2019-05-12T04:51:05.117Z,2.95
2019-05-12T04:53:35.378Z,2.40
2019-05-12T04:56:14.744Z,2.35
2019-05-12T04:58:35.239Z,2.33
2019-05-12T05:01:06.320Z,2.60
2019-05-12T05:03:36.811Z,2.10
2019-05-12T05:06:05.266Z,2.23
2019-05-12T05:08:34.884Z,1.98
2019-05-12T05:11:04.927Z,2.30
2019-05-12T05:13:36.752Z,2.00
2019-05-12T05:16:05.427Z,2.45
2019-05-12T05:18:34.559Z,2.35
2019-05-12T05:21:04.710Z,2.25
2019-05-12T05:23:53.760Z,2.40
2019-05-12T05:26:27.841Z,2.00
2019-05-12T05:28:54.236Z,2.00
2019-05-12T05:31:24.350Z,2.70
2019-05-12T05:33:53.673Z,2.10
2019-05-12T05:36:22.267Z,2.55
2019-05-12T05:38:55.766Z,2.12
2019-05-12T05:41:20.888Z,2.00
2019-05-12T05:43:56.389Z,2.20
2019-05-12T05:46:19.479Z,1.80
2019-05-12T05:48:48.120Z,2.15
2019-05-12T05:51:16.583Z,2.17
2019-05-12T05:53:49.900Z,2.20
2019-05-12T05:56:18.170Z,1.85
2019-05-12T05:58:50.268Z,2.22
2019-05-12T06:01:15.649Z,2.15
2019-05-12T06:03:44.330Z,1.95
2019-05-12T06:06:15.239Z,2.00
2019-05-12T06:08:45.368Z,2.10
2019-05-12T06:11:23.035Z,2.17
2019-05-12T06:13:44.451Z,2.15
2019-05-12T06:16:20.181Z,2.08
2019-05-12T06:18:43.988Z,2.27
2019-05-12T06:21:13.751Z,1.82
2019-05-12T06:23:43.468Z,2.33
2019-05-12T06:26:14.019Z,1.80
2019-05-12T06:28:43.937Z,2.22
2019-05-12T06:31:13.814Z,2.08
2019-05-12T06:33:44.682Z,2.50
2019-05-12T06:36:21.752Z,2.22
2019-05-12T06:38:43.520Z,2.10
2019-05-12T06:41:20.268Z,2.45
2019-05-12T06:43:45.243Z,1.87
2019-05-12T06:46:20.519Z,1.80
2019-05-12T06:48:45.351Z,2.05
2019-05-12T06:51:16.998Z,1.95
2019-05-12T06:53:44.326Z,2.67
2019-05-12T06:56:17.566Z,2.45
2019-05-12T06:58:44.262Z,2.60
2019-05-12T07:01:19.237Z,2.05
2019-05-12T07:03:44.064Z,2.08
2019-05-12T07:06:17.950Z,2.05
2019-05-12T07:08:43.873Z,2.22
2019-05-12T07:11:14.271Z,2.30
2019-05-12T07:13:43.656Z,1.85
2019-05-12T07:16:21.482Z,2.40
2019-05-12T07:18:47.122Z,1.92
2019-05-12T07:21:20.149Z,2.00
2019-05-12T07:23:46.031Z,1.77
2019-05-12T07:26:19.318Z,2.08
2019-05-12T07:28:44.785Z,2.02
2019-05-12T07:31:14.231Z,2.02
2019-05-12T07:33:45.985Z,2.30
2019-05-12T07:36:13.952Z,2.12
2019-05-12T07:38:43.906Z,1.72
2019-05-12T07:41:14.720Z,1.80
2019-05-12T07:43:45.099Z,2.55
2019-05-12T07:46:14.902Z,2.27
2019-05-12T07:48:46.518Z,2.27
2019-05-12T07:51:14.396Z,1.75
2019-05-12T07:53:46.888Z,1.98
2019-05-12T07:56:14.428Z,2.12
2019-05-12T07:58:47.462Z,2.30
2019-05-12T08:01:14.578Z,1.82
2019-05-12T08:03:43.797Z,1.77
2019-05-12T08:06:14.112Z,1.92
2019-05-12T08:08:51.099Z,1.62
2019-05-12T08:11:14.953Z,1.80
2019-05-12T08:13:43.816Z,1.80
2019-05-12T08:16:14.293Z,2.20
2019-05-12T08:18:44.425Z,1.80
2019-05-12T08:21:13.987Z,1.75
2019-05-12T08:23:44.413Z,1.62
2019-05-12T08:26:18.394Z,1.80
2019-05-12T08:28:44.244Z,1.70
2019-05-12T08:31:14.074Z,1.55
2019-05-12T08:33:43.678Z,1.85
2019-05-12T08:36:16.078Z,1.70
2019-05-12T08:38:44.446Z,1.60
2019-05-12T08:41:14.537Z,1.55
2019-05-12T08:43:47.117Z,2.12
2019-05-12T08:46:15.686Z,1.62
2019-05-12T08:48:44.733Z,1.60
2019-05-12T08:51:14.551Z,2.20
2019-05-12T08:53:43.922Z,2.35
2019-05-12T08:56:18.973Z,1.62
2019-05-12T08:58:48.235Z,1.60
2019-05-12T09:01:13.801Z,1.70
2019-05-12T09:03:44.301Z,1.67
2019-05-12T09:06:15.525Z,1.50
2019-05-12T09:08:49.325Z,1.70
2019-05-12T09:11:15.671Z,1.52
2019-05-12T09:13:44.109Z,1.50
2019-05-12T09:16:13.798Z,1.45
2019-05-12T09:18:43.506Z,1.35
2019-05-12T09:21:14.071Z,1.52
2019-05-12T09:23:44.982Z,1.95
2019-05-12T09:26:13.551Z,1.62
2019-05-12T09:28:49.883Z,1.80
2019-05-12T09:31:14.138Z,1.30
2019-05-12T09:33:44.728Z,1.87
2019-05-12T09:36:19.751Z,1.30
2019-05-12T09:38:44.062Z,1.80
2019-05-12T09:41:14.010Z,1.30
2019-05-12T09:43:46.213Z,1.55
2019-05-12T09:46:14.411Z,1.40
2019-05-12T09:48:48.471Z,1.20
2019-05-12T09:51:16.932Z,1.35
2019-05-12T09:53:50.805Z,1.20
2019-05-12T09:56:14.126Z,1.40
2019-05-12T09:58:43.626Z,1.55
2019-05-12T10:01:13.996Z,1.25
2019-05-12T10:03:43.735Z,1.22
2019-05-12T10:06:17.946Z,1.40
2019-05-12T10:08:43.489Z,1.35
2019-05-12T10:11:16.577Z,1.60
2019-05-12T10:13:44.791Z,1.52
2019-05-12T10:16:13.452Z,1.90
2019-05-12T10:18:50.770Z,1.75
2019-05-12T10:21:15.496Z,1.30
2019-05-12T10:23:43.623Z,1.70
2019-05-12T10:26:14.778Z,1.20
2019-05-12T10:28:51.553Z,1.50
2019-05-12T10:31:13.866Z,1.82
2019-05-12T10:33:43.329Z,1.75
2019-05-12T10:36:11.887Z,1.47
2019-05-12T10:38:40.324Z,1.65
2019-05-12T10:41:08.972Z,2.42
2019-05-12T10:43:37.481Z,1.55
2019-05-12T10:46:05.910Z,1.75
2019-05-12T10:48:34.470Z,1.55
2019-05-12T10:51:03.012Z,1.90
2019-05-12T10:53:31.465Z,1.80
2019-05-12T10:56:00.205Z,1.70
2019-05-12T10:58:28.625Z,2.10
2019-05-12T11:00:58.875Z,1.50
2019-05-12T11:03:27.541Z,1.40
2019-05-12T11:06:02.393Z,1.72
2019-05-12T11:08:26.126Z,1.52
2019-05-12T11:10:59.313Z,1.60
2019-05-12T11:13:24.981Z,1.60
2019-05-12T11:15:54.583Z,1.57
2019-05-12T11:18:26.057Z,1.70
2019-05-12T11:20:54.376Z,1.77
2019-05-12T11:23:24.450Z,2.27
2019-05-12T11:25:53.641Z,1.50
2019-05-12T11:28:24.250Z,1.60
2019-05-12T11:30:52.270Z,1.50
2019-05-12T11:33:20.740Z,1.57
2019-05-12T11:35:53.908Z,1.27
2019-05-12T11:38:24.252Z,1.98
2019-05-12T11:40:53.879Z,1.30
2019-05-12T11:43:24.628Z,1.67
2019-05-12T11:45:53.620Z,1.80
2019-05-12T11:48:23.792Z,1.80
2019-05-12T11:50:54.505Z,1.70
2019-05-12T11:53:30.250Z,1.70
2019-05-12T11:55:54.853Z,1.30
2019-05-12T11:58:23.801Z,1.50
2019-05-12T12:00:58.572Z,1.90
2019-05-12T12:03:26.589Z,1.57
2019-05-12T12:05:56.919Z,1.80
2019-05-12T12:08:33.726Z,1.50
2019-05-12T12:11:01.211Z,1.47
2019-05-12T12:13:33.665Z,1.82
2019-05-12T12:16:07.031Z,1.50
2019-05-12T12:18:34.542Z,1.72
2019-05-12T12:21:07.682Z,1.77
2019-05-12T12:23:36.044Z,1.50
2019-05-12T12:26:06.149Z,1.62
2019-05-12T12:28:37.205Z,1.22
2019-05-12T12:31:07.826Z,1.57
2019-05-12T12:33:40.707Z,1.82
2019-05-12T12:36:09.057Z,1.85
2019-05-12T18:33:52.136Z,1.50
2019-05-12T18:36:14.613Z,1.92
2019-05-12T18:38:44.732Z,1.92
2019-05-12T18:41:13.989Z,2.25
2019-05-12T18:43:43.538Z,1.95
2019-05-12T18:46:14.026Z,2.00
2019-05-12T18:48:42.497Z,2.00
2019-05-12T18:51:12.213Z,2.00
2019-05-12T18:53:43.657Z,2.40
2019-05-12T18:56:19.934Z,2.20
2019-05-12T18:58:43.885Z,2.35
2019-05-12T19:01:13.942Z,1.92
2019-05-12T19:03:47.882Z,2.37
2019-05-12T19:06:14.131Z,2.20
2019-05-12T19:08:42.687Z,2.22
2019-05-12T19:11:20.052Z,1.72
2019-05-12T19:13:45.323Z,2.12
2019-05-12T19:16:11.700Z,2.33
2019-05-12T19:18:40.175Z,2.25
2019-05-12T19:21:10.303Z,2.08
2019-05-12T19:23:38.759Z,2.20
2019-05-12T19:26:07.270Z,2.40
2019-05-12T19:28:35.686Z,2.20
2019-05-12T19:31:06.080Z,2.50
2019-05-12T19:33:34.658Z,2.25
2019-05-12T19:36:05.393Z,2.65
2019-05-12T19:38:34.557Z,2.77
2019-05-12T19:41:04.716Z,2.33
2019-05-12T19:43:33.981Z,2.37
2019-05-12T19:46:03.732Z,2.12
2019-05-12T19:48:36.758Z,2.47
2019-05-12T19:51:17.958Z,2.22
2019-05-12T19:53:33.322Z,2.33
2019-05-12T19:56:03.787Z,2.17
2019-05-12T19:58:33.997Z,2.65
2019-05-12T20:01:03.611Z,2.45
2019-05-12T20:03:33.496Z,2.22
2019-05-12T20:06:02.184Z,2.27
2019-05-12T20:08:30.805Z,2.60
2019-05-12T20:10:59.276Z,2.90
2019-05-12T20:13:29.653Z,2.40
2019-05-12T20:15:57.912Z,2.33
2019-05-12T20:18:26.351Z,2.17
2019-05-12T20:20:55.025Z,2.67
2019-05-12T20:23:24.506Z,2.58
2019-05-12T20:25:53.608Z,2.55
2019-05-12T20:28:24.213Z,2.50
2019-05-12T20:31:00.976Z,2.75
2019-05-12T20:33:24.030Z,2.45
2019-05-12T20:35:54.679Z,2.25
2019-05-12T20:38:27.154Z,2.83
2019-05-12T20:40:54.030Z,2.62
2019-05-12T20:43:23.997Z,3.15
2019-05-12T20:45:52.804Z,2.77
2019-05-12T20:48:26.462Z,2.60
2019-05-12T20:50:51.671Z,2.60
2019-05-12T20:53:24.866Z,3.27
2019-05-12T20:55:50.269Z,2.90
2019-05-12T20:58:18.691Z,3.17
2019-05-12T21:00:50.145Z,2.92
2019-05-12T21:03:17.896Z,3.77
2019-05-12T21:05:50.676Z,3.00
2019-05-12T21:08:16.738Z,3.17
2019-05-12T21:10:45.386Z,3.00
2019-05-12T21:13:14.681Z,2.62
2019-05-12T21:15:45.783Z,3.22
2019-05-12T21:18:14.875Z,3.20
2019-05-12T21:20:46.444Z,2.85
2019-05-12T21:23:13.687Z,2.70
2019-05-12T21:25:43.840Z,3.02
2019-05-12T21:28:14.666Z,2.90
2019-05-12T21:30:48.116Z,2.85
2019-05-12T21:33:14.775Z,3.25
2019-05-12T21:35:45.840Z,2.58
2019-05-12T21:38:13.535Z,3.55
2019-05-12T21:40:44.154Z,3.80
2019-05-12T21:43:13.531Z,2.70
2019-05-12T21:45:42.171Z,3.15
2019-05-12T21:48:15.230Z,3.20
2019-05-12T21:50:40.754Z,3.40
2019-05-12T21:53:10.122Z,2.52
2019-05-12T21:55:39.565Z,3.17
2019-05-12T21:58:12.175Z,2.83
2019-05-12T22:00:45.065Z,3.10
2019-05-12T22:03:15.587Z,3.17
2019-05-12T22:05:51.676Z,3.00
2019-05-12T22:08:20.713Z,2.77
2019-05-12T22:10:45.862Z,3.50
2019-05-12T22:13:17.962Z,2.67
2019-05-12T22:15:45.022Z,2.83
2019-05-12T22:18:13.451Z,2.72
2019-05-12T22:20:44.477Z,2.95
2019-05-12T22:23:14.951Z,2.65
2019-05-12T22:25:43.597Z,3.30
2019-05-12T22:28:13.494Z,2.83
2019-05-12T22:30:43.797Z,2.90
2019-05-12T22:33:13.850Z,3.33
2019-05-12T22:35:44.355Z,3.02
2019-05-12T22:38:16.616Z,2.62
2019-05-12T22:40:43.146Z,3.40
2019-05-12T22:43:11.582Z,2.85
2019-05-12T22:45:49.148Z,2.70
2019-05-12T22:48:12.093Z,2.85
2019-05-12T22:50:40.552Z,3.27
2019-05-12T22:53:09.555Z,3.27
2019-05-12T22:55:38.011Z,2.98
2019-05-12T22:58:10.838Z,3.17
2019-05-12T23:00:37.140Z,2.50
2019-05-12T23:03:10.163Z,3.27
2019-05-12T23:05:36.252Z,3.20
2019-05-12T23:08:08.260Z,2.98
2019-05-12T23:10:35.040Z,3.55
2019-05-12T23:13:05.114Z,3.15
2019-05-12T23:15:38.865Z,2.70
2019-05-12T23:18:04.421Z,2.55
2019-05-12T23:20:35.533Z,2.72
2019-05-12T23:23:04.021Z,3.27
2019-05-12T23:25:33.771Z,2.60
2019-05-12T23:28:06.776Z,3.15
2019-05-12T23:30:32.660Z,3.05
2019-05-12T23:33:03.540Z,3.77
2019-05-12T23:35:37.295Z,3.15
2019-05-12T23:38:04.188Z,3.40
2019-05-12T23:40:34.382Z,3.72
2019-05-12T23:43:04.131Z,2.90
2019-05-12T23:45:33.981Z,2.90
2019-05-12T23:48:03.785Z,2.85
2019-05-12T23:50:32.742Z,3.12
2019-05-12T23:53:03.505Z,3.67
2019-05-12T23:55:34.712Z,3.25
2019-05-12T23:58:04.131Z,3.27
